Main page
METAR-TAF:

METAR-TAF

Airports :

Donaldson Center Airport

Greenville, South Carolina, United States

latitude: 34-45-30N, longitude: 082-22-35W, elevation: 954 ft

Current weather observation

The report was made 21 minutes ago, at 03:55 UTC
Wind 6 mph from the South/Southwest
Temperature 70°F
Humidity 83%
Pressure 30.10 in. Hg
Visibility: 10 miles
Clear sky

METAR: KGYH 030355Z AUTO 21005KT 10SM CLR 21/18 A3010 RMK AO2

Time: 00:16 (04:16 UTC)


TAF: missing

Weather observations and forecasts of more than 4000 airports (METAR and TAF reports).

The available stations are represented by yellow and red dots on the map.

Hover mouse over dot to see the name of the station.

Then click to see weather observations and forecasts.

To change the map : click on the green buttons with a black cross to zoom in, on the green button with a dash to zoom out, or on the green arrows for adjacent maps.


METAR-TAF: